Time;durP1;ratioP1;P1;durP2;ratioP2;P2;SDS_P1;SDS_P2;PMS_P1;PMS_P2;Temp;Humidity;BMP_temperature;BMP_pressure;BME280_temperature;BME280_humidity;BME280_pressure;Samples;Min_cycle;Max_cycle;Signal;HPM_P1;HPM_P2
2022/10/07 00:01:24;;;;;;;73.30;17.10;;;11.40;95.60;;;;;;5042242;28;20410;-86
2022/10/07 00:03:50;;;;;;;77.97;20.83;;;11.50;94.70;;;;;;5042229;28;20169;-86
2022/10/07 00:06:20;;;;;;;72.93;18.43;;;11.50;93.40;;;;;;5025008;28;20244;-86
2022/10/07 00:08:48;;;;;;;73.85;20.17;;;11.50;93.20;;;;;;5042362;28;20886;-86
2022/10/07 00:11:24;;;;;;;74.65;22.65;;;11.50;93.20;;;;;;5023239;28;20248;-86
2022/10/07 00:13:56;;;;;;;69.85;14.77;;;11.40;92.60;;;;;;5042806;28;20236;-86
2022/10/07 00:16:25;;;;;;;71.43;17.55;;;11.40;95.10;;;;;;5043172;28;20161;-86
2022/10/07 00:18:55;;;;;;;80.53;19.08;;;11.40;93.80;;;;;;5024882;28;20258;-86
2022/10/07 00:21:20;;;;;;;73.95;25.27;;;11.40;93.30;;;;;;5040611;28;20162;-86
2022/10/07 00:23:47;;;;;;;76.40;19.20;;;11.30;93.80;;;;;;5041020;28;20173;-86
2022/10/07 00:26:17;;;;;;;73.97;13.35;;;11.40;92.70;;;;;;5040846;28;20279;-86
2022/10/07 00:28:43;;;;;;;76.20;17.77;;;11.30;93.30;;;;;;5041282;28;20189;-86
2022/10/07 00:31:15;;;;;;;75.70;20.33;;;11.40;92.80;;;;;;5041141;28;20169;-86
2022/10/07 00:33:42;;;;;;;74.40;22.73;;;11.30;93.00;;;;;;5041295;28;20391;-86
2022/10/07 00:36:17;;;;;;;74.18;20.13;;;11.40;92.00;;;;;;5041442;28;20161;-86
2022/10/07 00:38:43;;;;;;;81.65;33.22;;;11.40;91.90;;;;;;5040380;28;20265;-86
2022/10/07 00:41:17;;;;;;;72.63;21.02;;;11.30;91.60;;;;;;5040809;28;20528;-86
2022/10/07 00:43:43;;;;;;;79.80;27.23;;;11.20;93.30;;;;;;5041354;28;20590;-86
2022/10/07 00:46:15;;;;;;;74.20;15.20;;;11.00;95.30;;;;;;5040639;28;20250;-86
2022/10/07 00:48:45;;;;;;;71.30;11.88;;;10.80;99.00;;;;;;5040409;28;20423;-86
2022/10/07 00:51:15;;;;;;;73.75;11.27;;;10.80;99.20;;;;;;5041045;28;20196;-86
2022/10/07 00:53:46;;;;;;;71.65;12.68;;;10.80;99.90;;;;;;5040563;28;20193;-86
2022/10/07 00:56:15;;;;;;;71.50;13.38;;;10.80;99.90;;;;;;5040607;28;20209;-86
2022/10/07 00:58:43;;;;;;;70.47;13.18;;;10.80;99.90;;;;;;5022227;28;20264;-86
2022/10/07 01:01:10;;;;;;;74.68;14.05;;;10.90;98.30;;;;;;5040707;28;20256;-86
2022/10/07 01:03:36;;;;;;;73.65;12.27;;;11.00;97.40;;;;;;5040273;28;20260;-86
2022/10/07 01:06:03;;;;;;;69.85;10.85;;;11.00;97.10;;;;;;5040485;28;20154;-87
2022/10/07 01:08:29;;;;;;;81.45;13.90;;;10.90;99.00;;;;;;5040058;28;20196;-86
2022/10/07 01:11:30;;;;;;;71.50;13.90;;;10.90;98.10;;;;;;5039628;28;20522;-86
2022/10/07 01:14:08;;;;;;;74.20;12.70;;;10.90;97.60;;;;;;5039958;28;20263;-86
2022/10/07 01:16:46;;;;;;;71.63;12.88;;;10.90;97.80;;;;;;5022512;28;20514;-86
2022/10/07 01:19:21;;;;;;;75.90;15.55;;;10.90;96.70;;;;;;5039934;28;20184;-86
2022/10/07 01:22:12;;;;;;;72.93;14.05;;;10.90;96.40;;;;;;5022143;28;20256;-86
2022/10/07 01:24:59;;;;;;;74.78;17.15;;;10.90;96.80;;;;;;5039674;28;20208;-86
2022/10/07 01:27:27;;;;;;;71.35;12.93;;;10.80;97.30;;;;;;5021935;28;20533;-86
2022/10/07 01:30:02;;;;;;;73.40;11.20;;;10.70;97.80;;;;;;5022947;28;20636;-86
2022/10/07 01:32:36;;;;;;;71.75;12.88;;;10.50;99.90;;;;;;5039303;28;20153;-86
2022/10/07 01:35:07;;;;;;;71.22;13.15;;;10.50;99.90;;;;;;5038996;28;20157;-86
2022/10/07 01:37:39;;;;;;;70.78;11.90;;;10.50;99.90;;;;;;5038942;28;20264;-86
2022/10/07 01:40:38;;;;;;;70.28;14.25;;;10.50;99.90;;;;;;5038020;28;20149;-86
2022/10/07 01:43:05;;;;;;;71.13;13.15;;;10.30;99.90;;;;;;5038711;28;20165;-86
2022/10/07 01:45:34;;;;;;;74.75;20.83;;;10.20;99.90;;;;;;5038362;28;20525;-86
2022/10/07 01:48:00;;;;;;;74.82;24.15;;;10.20;99.90;;;;;;5037834;28;20224;-86
2022/10/07 01:50:28;;;;;;;79.40;35.67;;;10.10;99.90;;;;;;5038302;28;20189;-86
2022/10/07 01:53:32;;;;;;;88.28;55.17;;;10.00;99.90;;;;;;5023693;28;20165;-87
2022/10/07 01:56:53;;;;;;;86.68;60.95;;;10.10;99.90;;;;;;5023636;28;20157;-86
2022/10/07 01:59:34;;;;;;;85.95;56.20;;;10.20;99.90;;;;;;4969399;28;20255;-86
2022/10/07 02:02:29;;;;;;;82.15;43.42;;;10.30;99.90;;;;;;5022976;28;20188;-86
2022/10/07 02:05:18;;;;;;;74.75;20.10;;;10.50;99.90;;;;;;5021738;28;20208;-86
2022/10/07 02:08:10;;;;;;;76.78;24.27;;;10.40;99.90;;;;;;5040675;28;20244;-86
2022/10/07 02:11:08;;;;;;;73.40;22.48;;;10.40;99.90;;;;;;5040898;28;20233;-86
2022/10/07 02:13:41;;;;;;;77.47;32.80;;;10.40;99.90;;;;;;5033671;28;20192;-86
2022/10/07 02:16:09;;;;;;;74.55;22.95;;;10.50;99.90;;;;;;5023222;28;20172;-86
2022/10/07 02:18:37;;;;;;;75.18;18.90;;;10.50;99.90;;;;;;5040709;28;20748;-86
2022/10/07 02:21:05;;;;;;;80.57;22.27;;;10.30;99.90;;;;;;5041964;28;20169;-86
2022/10/07 02:23:33;;;;;;;82.45;35.45;;;10.10;99.90;;;;;;5041602;28;20268;-86
2022/10/07 02:26:01;;;;;;;81.72;41.03;;;10.10;99.90;;;;;;5040562;28;20699;-86
2022/10/07 02:28:28;;;;;;;77.78;32.67;;;10.10;99.90;;;;;;5022477;28;20198;-86
2022/10/07 02:30:58;;;;;;;74.20;28.30;;;10.00;99.90;;;;;;5039881;28;20177;-86
2022/10/07 02:33:26;;;;;;;78.47;40.13;;;10.00;99.90;;;;;;5022184;28;20173;-86
2022/10/07 02:36:15;;;;;;;81.13;42.20;;;10.10;99.90;;;;;;5039339;28;20174;-86
2022/10/07 02:38:42;;;;;;;85.50;27.35;;;10.10;99.90;;;;;;5039554;28;20197;-86
2022/10/07 02:41:30;;;;;;;77.13;28.50;;;10.10;99.90;;;;;;5039318;28;20161;-86
2022/10/07 02:44:06;;;;;;;78.55;27.20;;;10.10;99.90;;;;;;5039580;28;20148;-87
2022/10/07 02:46:40;;;;;;;76.57;30.42;;;10.00;99.90;;;;;;5021209;28;20185;-86
2022/10/07 02:49:09;;;;;;;76.10;31.88;;;9.90;99.90;;;;;;5021103;28;20189;-86
2022/10/07 02:51:45;;;;;;;81.68;49.67;;;9.80;99.90;;;;;;5039024;28;20161;-86
2022/10/07 02:54:12;;;;;;;82.40;45.45;;;9.80;99.90;;;;;;5038997;28;20139;-86
2022/10/07 02:56:40;;;;;;;76.35;31.08;;;10.00;99.90;;;;;;5038173;28;20191;-86
2022/10/07 02:59:09;;;;;;;78.55;30.63;;;10.00;99.90;;;;;;5038312;28;20185;-86
2022/10/07 03:01:40;;;;;;;80.25;35.90;;;9.80;99.90;;;;;;5038568;28;20172;-86
2022/10/07 03:04:06;;;;;;;82.93;40.35;;;9.70;99.90;;;;;;5019276;28;20532;-86
2022/10/07 03:06:34;;;;;;;92.37;41.63;;;9.60;99.90;;;;;;5038201;28;20169;-86
2022/10/07 03:09:02;;;;;;;82.38;43.22;;;9.60;99.90;;;;;;5037663;28;20416;-86
2022/10/07 03:11:28;;;;;;;83.25;43.03;;;9.70;99.90;;;;;;5037818;28;20165;-86
2022/10/07 03:13:54;;;;;;;77.93;37.53;;;9.60;99.90;;;;;;5037742;28;20517;-86
2022/10/07 03:16:19;;;;;;;82.37;38.80;;;9.60;99.90;;;;;;5037148;28;20162;-87
2022/10/07 03:18:45;;;;;;;79.63;35.10;;;9.60;99.90;;;;;;5037348;28;20279;-87
2022/10/07 03:21:11;;;;;;;78.70;38.07;;;9.60;99.90;;;;;;5019108;28;20165;-86
2022/10/07 03:23:37;;;;;;;78.95;33.30;;;9.60;99.90;;;;;;5036562;28;20329;-86
2022/10/07 03:26:03;;;;;;;79.33;34.30;;;9.60;99.90;;;;;;5036609;28;20700;-86
2022/10/07 03:28:34;;;;;;;78.50;37.75;;;9.50;99.90;;;;;;5036633;28;20286;-87
2022/10/07 03:31:08;;;;;;;78.25;28.02;;;9.40;99.90;;;;;;5037091;28;20692;-86
2022/10/07 03:33:34;;;;;;;81.72;32.97;;;9.40;99.90;;;;;;5037173;28;20161;-86
2022/10/07 03:36:00;;;;;;;75.60;30.42;;;9.60;99.90;;;;;;5037253;28;20162;-86
2022/10/07 03:38:25;;;;;;;78.30;33.30;;;9.60;99.90;;;;;;5036660;28;20204;-86
2022/10/07 03:40:51;;;;;;;76.10;28.57;;;9.40;99.90;;;;;;5036615;28;20252;-87
2022/10/07 03:43:17;;;;;;;76.50;30.23;;;9.40;99.90;;;;;;5036228;28;20165;-86
2022/10/07 03:45:44;;;;;;;74.83;24.33;;;9.50;99.90;;;;;;5036244;28;20174;-87
2022/10/07 03:48:10;;;;;;;75.82;28.05;;;9.50;99.90;;;;;;5036663;28;20272;-87
2022/10/07 03:50:36;;;;;;;75.70;22.87;;;9.50;99.90;;;;;;5036163;28;20252;-86
2022/10/07 03:53:03;;;;;;;78.85;27.13;;;9.50;99.90;;;;;;5036167;28;20519;-86
2022/10/07 03:55:29;;;;;;;77.45;25.20;;;9.60;99.90;;;;;;5036501;28;20165;-87
2022/10/07 03:57:56;;;;;;;76.17;28.10;;;9.60;99.90;;;;;;5035738;28;20274;-87
2022/10/07 04:00:23;;;;;;;77.82;26.30;;;9.50;99.90;;;;;;5035994;28;20408;-87
2022/10/07 04:02:50;;;;;;;80.90;22.42;;;9.50;99.90;;;;;;5036205;28;20175;-87
2022/10/07 04:05:17;;;;;;;76.30;23.90;;;9.50;99.90;;;;;;5018038;28;20550;-87
2022/10/07 04:07:44;;;;;;;78.00;22.02;;;9.40;99.90;;;;;;5036409;28;21469;-87
2022/10/07 04:10:12;;;;;;;70.75;20.38;;;9.40;99.90;;;;;;5035810;28;20191;-87
2022/10/07 04:12:38;;;;;;;69.95;16.40;;;9.30;99.90;;;;;;5035974;28;20249;-87
2022/10/07 04:15:04;;;;;;;73.85;19.75;;;9.30;99.90;;;;;;5035254;28;20165;-86
2022/10/07 04:17:30;;;;;;;73.45;17.67;;;9.30;99.90;;;;;;5035454;28;20225;-86
2022/10/07 04:19:56;;;;;;;73.57;20.53;;;9.30;99.90;;;;;;5017610;28;20176;-86
2022/10/07 04:22:23;;;;;;;71.82;20.15;;;9.20;99.90;;;;;;5017302;28;20421;-87
2022/10/07 04:27:36;;;;;;;80.32;17.52;;;9.10;99.90;;;;;;5035110;28;20160;-87
2022/10/07 04:30:03;;;;;;;71.47;15.52;;;9.10;99.90;;;;;;5017412;28;20180;-87
2022/10/07 04:32:30;;;;;;;68.85;14.27;;;9.10;99.90;;;;;;5035249;28;20165;-86
2022/10/07 04:34:56;;;;;;;72.90;14.23;;;9.00;99.90;;;;;;5017994;28;20192;-87
2022/10/07 04:37:21;;;;;;;71.47;13.20;;;8.90;99.90;;;;;;5034882;28;20664;-87
2022/10/07 04:39:50;;;;;;;70.23;13.50;;;9.00;99.90;;;;;;5017411;28;20561;-86
2022/10/07 04:45:00;;;;;;;70.10;13.48;;;9.10;99.90;;;;;;5035262;28;20200;-87
2022/10/07 04:47:26;;;;;;;70.63;15.60;;;9.10;99.90;;;;;;5035153;28;20149;-87
2022/10/07 04:49:52;;;;;;;70.33;16.73;;;9.10;99.90;;;;;;5034749;28;20165;-87
2022/10/07 04:52:21;;;;;;;72.10;15.18;;;9.10;99.90;;;;;;5034524;28;20621;-86
2022/10/07 04:54:46;;;;;;;74.93;14.23;;;9.20;99.90;;;;;;5037022;28;20169;-86
2022/10/07 04:57:12;;;;;;;70.27;18.00;;;9.20;99.90;;;;;;5037833;28;20193;-86
2022/10/07 04:59:39;;;;;;;70.10;16.73;;;9.20;99.90;;;;;;5020292;28;20284;-86
2022/10/07 05:02:04;;;;;;;71.32;13.63;;;9.30;99.90;;;;;;5037277;28;20158;-86
2022/10/07 05:04:30;;;;;;;72.10;16.13;;;9.30;99.90;;;;;;5102766;22;20217;-84
2022/10/07 05:06:56;;;;;;;69.57;15.30;;;9.10;99.90;;;;;;5021831;28;20990;-84
2022/10/07 05:09:21;;;;;;;76.00;16.57;;;9.00;99.90;;;;;;5039295;28;20184;-84
2022/10/07 05:11:48;;;;;;;73.10;16.50;;;8.90;99.90;;;;;;5039717;28;20672;-84
2022/10/07 05:14:13;;;;;;;67.15;11.25;;;8.90;99.90;;;;;;5040034;28;20157;-84
2022/10/07 05:16:39;;;;;;;69.77;11.50;;;8.90;99.90;;;;;;5020847;28;20195;-84
2022/10/07 05:19:05;;;;;;;71.07;11.53;;;8.90;99.90;;;;;;5021632;28;20439;-84
2022/10/07 05:21:33;;;;;;;70.67;12.50;;;8.90;99.90;;;;;;5022044;28;20177;-84
2022/10/07 05:23:59;;;;;;;71.88;13.02;;;8.80;99.90;;;;;;5038577;28;20165;-84
2022/10/07 05:26:25;;;;;;;68.70;11.27;;;8.80;99.90;;;;;;5020781;28;20268;-84
2022/10/07 05:28:50;;;;;;;75.47;12.80;;;8.80;99.90;;;;;;5037785;28;20216;-84
2022/10/07 05:31:16;;;;;;;68.43;12.47;;;8.80;99.90;;;;;;5037897;28;20166;-84
2022/10/07 05:33:42;;;;;;;68.17;12.17;;;8.80;99.90;;;;;;5037543;28;20249;-84
2022/10/07 05:36:11;;;;;;;70.32;13.75;;;8.70;99.90;;;;;;5037986;28;20166;-83
2022/10/07 05:38:37;;;;;;;70.22;12.27;;;8.70;99.90;;;;;;5020204;28;20615;-84
2022/10/07 05:41:05;;;;;;;72.65;16.00;;;8.80;99.90;;;;;;5038577;28;20169;-84
2022/10/07 05:43:35;;;;;;;72.55;13.65;;;8.80;99.90;;;;;;5020303;28;20160;-84
2022/10/07 05:46:06;;;;;;;75.43;11.95;;;8.90;99.90;;;;;;5021258;28;20249;-84
2022/10/07 05:48:33;;;;;;;72.70;14.30;;;9.00;99.90;;;;;;5039744;28;20189;-84
2022/10/07 05:50:59;;;;;;;70.22;12.52;;;9.00;99.90;;;;;;5040087;28;20180;-83
2022/10/07 05:53:26;;;;;;;70.15;13.25;;;9.00;99.90;;;;;;5022665;28;20165;-82
2022/10/07 05:55:52;;;;;;;72.88;12.40;;;8.90;99.90;;;;;;5039427;28;20169;-82
2022/10/07 05:58:22;;;;;;;69.53;11.10;;;8.90;99.90;;;;;;5039950;28;20201;-84
2022/10/07 06:00:56;;;;;;;77.90;13.40;;;9.00;99.90;;;;;;5022237;28;20219;-83
2022/10/07 06:03:24;;;;;;;70.30;12.68;;;9.00;99.90;;;;;;5038596;28;20167;-84
2022/10/07 06:05:51;;;;;;;70.75;12.35;;;8.80;99.90;;;;;;5039423;28;20177;-83
2022/10/07 06:08:18;;;;;;;73.00;13.32;;;8.90;99.90;;;;;;5038604;28;20177;-84
2022/10/07 06:13:29;;;;;;;70.35;15.00;;;8.80;99.90;;;;;;5037730;28;20249;-83
2022/10/07 06:16:03;;;;;;;74.67;15.47;;;8.90;99.90;;;;;;5020658;28;20200;-83
2022/10/07 06:18:29;;;;;;;69.30;13.25;;;9.00;99.90;;;;;;5038658;28;21069;-83
2022/10/07 06:20:56;;;;;;;71.22;14.10;;;9.00;99.90;;;;;;5020655;28;20579;-83
2022/10/07 06:23:22;;;;;;;75.05;14.73;;;9.00;99.90;;;;;;5038419;28;20168;-83
2022/10/07 06:26:03;;;;;;;72.05;11.55;;;8.90;99.90;;;;;;5021003;28;20175;-83
2022/10/07 06:28:38;;;;;;;71.28;16.40;;;8.80;99.90;;;;;;5020133;28;20284;-82
2022/10/07 06:31:09;;;;;;;78.57;26.70;;;8.80;99.90;;;;;;5037396;28;20164;-83
2022/10/07 06:33:35;;;;;;;74.90;26.70;;;8.90;99.90;;;;;;5037752;28;20244;-83
2022/10/07 06:36:05;;;;;;;82.73;18.07;;;9.00;99.90;;;;;;5038966;28;20193;-84
2022/10/07 06:38:31;;;;;;;71.85;16.38;;;9.10;99.90;;;;;;5023982;28;20207;-83
2022/10/07 06:40:58;;;;;;;78.17;18.93;;;9.10;99.90;;;;;;5040995;28;20165;-84
2022/10/07 06:43:36;;;;;;;72.50;20.50;;;9.10;99.90;;;;;;5023661;28;20205;-84
2022/10/07 06:46:06;;;;;;;73.25;23.88;;;9.00;99.90;;;;;;5040587;28;20145;-84
2022/10/07 06:48:35;;;;;;;77.32;26.10;;;9.00;99.90;;;;;;5022358;28;20580;-84
2022/10/07 06:51:02;;;;;;;87.72;34.22;;;9.10;99.90;;;;;;5022277;28;20196;-85
2022/10/07 06:53:29;;;;;;;74.55;22.17;;;9.20;99.90;;;;;;5021970;28;20173;-84
2022/10/07 06:55:56;;;;;;;70.90;19.02;;;9.20;99.90;;;;;;5022654;28;20169;-83
2022/10/07 06:58:26;;;;;;;75.40;25.92;;;9.20;99.90;;;;;;5023699;28;20209;-84
2022/10/07 07:00:52;;;;;;;80.43;36.55;;;9.10;99.90;;;;;;5041646;28;20166;-84
2022/10/07 07:03:19;;;;;;;81.50;39.72;;;9.00;99.90;;;;;;5041107;28;20661;-82
2022/10/07 07:05:45;;;;;;;83.07;42.78;;;9.10;99.90;;;;;;5040043;28;20209;-84
2022/10/07 07:08:13;;;;;;;85.18;42.60;;;9.10;99.90;;;;;;5040103;28;20250;-83
2022/10/07 07:10:41;;;;;;;84.18;51.38;;;9.10;99.90;;;;;;5039052;28;20161;-83
2022/10/07 07:13:08;;;;;;;92.10;54.22;;;9.20;99.90;;;;;;5022978;28;20666;-84
2022/10/07 07:15:34;;;;;;;85.38;47.78;;;9.20;99.90;;;;;;5023151;28;20252;-84
2022/10/07 07:18:01;;;;;;;90.35;52.67;;;9.30;99.90;;;;;;5040591;28;20219;-83
2022/10/07 07:20:33;;;;;;;84.63;46.38;;;9.30;99.90;;;;;;5022434;28;20176;-84
2022/10/07 07:23:00;;;;;;;84.82;46.72;;;9.30;99.90;;;;;;5022547;28;20161;-84
2022/10/07 07:25:25;;;;;;;85.18;45.88;;;9.40;99.90;;;;;;5040249;28;20212;-83
2022/10/07 07:27:51;;;;;;;84.57;47.00;;;9.40;99.90;;;;;;5040471;28;20181;-84
2022/10/07 07:30:21;;;;;;;82.27;45.73;;;9.50;99.90;;;;;;5040240;28;20620;-85
2022/10/07 07:32:47;;;;;;;84.53;47.83;;;9.60;99.90;;;;;;5040848;28;20158;-84
2022/10/07 07:35:13;;;;;;;86.87;49.70;;;9.60;99.90;;;;;;5040544;28;20161;-84
2022/10/07 07:37:39;;;;;;;83.33;41.13;;;9.70;99.90;;;;;;5040150;28;20493;-84
2022/10/07 07:40:05;;;;;;;89.33;43.40;;;9.70;99.90;;;;;;5023073;28;20439;-83
2022/10/07 07:42:31;;;;;;;82.60;48.95;;;9.70;99.90;;;;;;5040851;28;20189;-84
2022/10/07 07:44:57;;;;;;;88.47;49.27;;;9.80;99.90;;;;;;5023685;28;20157;-84
2022/10/07 07:47:23;;;;;;;85.17;55.30;;;9.90;99.90;;;;;;5024309;28;20412;-83
2022/10/07 07:49:49;;;;;;;88.80;51.83;;;9.90;99.90;;;;;;5039945;28;20431;-83
2022/10/07 07:52:15;;;;;;;91.32;58.45;;;9.90;99.90;;;;;;5040542;28;20157;-83
2022/10/07 07:54:41;;;;;;;88.60;50.13;;;10.00;99.90;;;;;;5041041;28;20205;-83
2022/10/07 07:57:07;;;;;;;82.93;43.53;;;10.00;99.90;;;;;;5041014;28;20185;-84
2022/10/07 07:59:33;;;;;;;84.10;43.43;;;10.00;99.90;;;;;;5041559;28;20181;-84
2022/10/07 08:01:59;;;;;;;91.25;47.78;;;10.10;99.90;;;;;;5023296;28;20407;-84
2022/10/07 08:04:25;;;;;;;86.10;51.70;;;10.20;99.90;;;;;;5022405;28;20688;-84
2022/10/07 08:06:51;;;;;;;89.73;58.73;;;10.30;99.90;;;;;;5023818;28;20180;-84
2022/10/07 08:09:16;;;;;;;84.87;51.50;;;10.30;99.90;;;;;;5023524;28;20221;-83
2022/10/07 08:11:45;;;;;;;88.57;53.77;;;10.40;99.90;;;;;;5023501;28;20500;-84
2022/10/07 08:14:16;;;;;;;87.65;57.85;;;10.50;99.90;;;;;;5041423;28;20208;-84
2022/10/07 08:16:46;;;;;;;91.35;63.10;;;10.50;99.90;;;;;;5023068;28;20214;-84
2022/10/07 08:19:11;;;;;;;90.82;60.40;;;10.50;99.90;;;;;;5021928;28;20185;-84
2022/10/07 08:21:38;;;;;;;88.60;56.50;;;10.60;99.90;;;;;;5040636;28;20166;-84
2022/10/07 08:24:08;;;;;;;92.05;63.40;;;10.60;99.90;;;;;;5039916;28;20528;-83
2022/10/07 08:26:36;;;;;;;88.25;56.30;;;10.70;99.90;;;;;;5022577;28;20169;-84
2022/10/07 08:29:02;;;;;;;85.32;48.83;;;10.70;99.90;;;;;;5040842;28;20181;-84
2022/10/07 08:31:29;;;;;;;89.30;57.28;;;10.70;99.90;;;;;;5040629;28;20583;-84
2022/10/07 08:33:58;;;;;;;86.45;44.63;;;10.80;99.90;;;;;;5023056;28;20604;-84
2022/10/07 08:36:25;;;;;;;88.10;54.30;;;10.80;99.90;;;;;;5040752;28;20166;-84
2022/10/07 08:38:51;;;;;;;87.07;56.95;;;10.90;99.90;;;;;;5022834;28;20611;-84
2022/10/07 08:41:49;;;;;;;96.38;62.05;;;11.00;99.90;;;;;;5039153;28;20172;-84
2022/10/07 08:44:23;;;;;;;90.95;63.85;;;11.00;99.90;;;;;;5038364;28;20562;-84
2022/10/07 08:47:24;;;;;;;91.07;56.67;;;11.10;99.90;;;;;;5021725;28;20259;-84
2022/10/07 08:49:53;;;;;;;90.05;52.13;;;11.20;99.90;;;;;;5038819;28;20226;-84
2022/10/07 08:52:35;;;;;;;99.35;70.07;;;11.30;99.90;;;;;;5020498;28;20175;-84
2022/10/07 08:55:02;;;;;;;99.32;69.32;;;11.40;99.90;;;;;;5020915;28;20248;-84
2022/10/07 08:58:06;;;;;;;91.10;62.08;;;11.40;99.90;;;;;;5020501;28;20194;-84
2022/10/07 09:00:39;;;;;;;85.72;55.85;;;11.50;99.90;;;;;;5038751;28;20176;-84
2022/10/07 09:03:13;;;;;;;91.63;66.95;;;11.60;99.90;;;;;;5039678;28;20215;-84
2022/10/07 09:05:43;;;;;;;94.13;70.82;;;11.70;99.90;;;;;;5040434;28;20655;-84
2022/10/07 09:08:31;;;;;;;95.20;72.03;;;11.80;99.90;;;;;;5040476;28;20192;-84
2022/10/07 09:11:14;;;;;;;96.85;73.30;;;11.90;99.90;;;;;;5039935;28;20237;-84
2022/10/07 09:13:46;;;;;;;100.00;72.97;;;12.00;99.90;;;;;;5039611;28;20148;-84
2022/10/07 09:16:18;;;;;;;98.90;74.95;;;12.00;99.90;;;;;;5023071;28;20180;-84
2022/10/07 09:18:52;;;;;;;92.32;48.67;;;12.20;99.90;;;;;;5040891;28;20197;-84
2022/10/07 09:21:35;;;;;;;85.90;40.88;;;12.30;99.90;;;;;;5039792;28;20222;-84
2022/10/07 09:24:23;;;;;;;93.50;62.65;;;12.40;99.90;;;;;;5021711;28;20624;-84
2022/10/07 09:26:53;;;;;;;86.88;50.58;;;12.60;99.90;;;;;;5039926;28;20164;-84
2022/10/07 09:29:21;;;;;;;84.43;36.35;;;12.70;99.90;;;;;;5021520;28;20185;-87
2022/10/07 09:31:48;;;;;;;74.28;12.48;;;12.80;99.90;;;;;;5023789;28;20200;-84
2022/10/07 09:34:23;;;;;;;84.45;12.90;;;13.00;99.90;;;;;;5023337;28;20165;-84
2022/10/07 09:37:10;;;;;;;74.50;13.23;;;13.00;99.90;;;;;;5023142;28;20648;-84
2022/10/07 09:39:36;;;;;;;69.25;9.63;;;13.10;99.90;;;;;;5041272;28;20644;-84
2022/10/07 09:42:08;;;;;;;74.68;9.52;;;13.30;99.90;;;;;;5041487;28;20210;-84
2022/10/07 09:44:35;;;;;;;70.75;8.25;;;13.60;99.90;;;;;;5023846;28;20165;-83
2022/10/07 09:47:17;;;;;;;69.10;8.40;;;13.70;99.90;;;;;;5040948;28;20520;-84
2022/10/07 09:49:45;;;;;;;73.38;9.90;;;13.80;99.90;;;;;;5023309;28;20480;-84
2022/10/07 09:52:30;;;;;;;67.10;8.50;;;14.00;99.90;;;;;;5040430;28;20180;-85
2022/10/07 09:55:31;;;;;;;80.47;9.50;;;14.20;99.90;;;;;;5038995;28;20463;-85
2022/10/07 09:58:01;;;;;;;70.80;8.23;;;14.50;99.90;;;;;;5036281;28;20511;-85
2022/10/07 10:00:29;;;;;;;67.87;6.70;;;14.70;99.90;;;;;;5039317;28;20406;-84
2022/10/07 10:03:13;;;;;;;68.57;7.20;;;14.90;99.90;;;;;;5021506;28;20403;-85
2022/10/07 10:05:53;;;;;;;68.77;6.57;;;15.00;99.90;;;;;;5038686;28;20424;-85
2022/10/07 10:08:23;;;;;;;76.03;5.30;;;15.10;99.90;;;;;;5038305;28;20434;-84
2022/10/07 10:10:57;;;;;;;70.50;4.77;;;15.30;96.90;;;;;;5039142;28;20387;-85
2022/10/07 10:13:37;;;;;;;67.97;4.97;;;15.30;94.70;;;;;;5042662;28;20388;-85
2022/10/07 10:16:05;;;;;;;68.43;4.63;;;15.40;94.30;;;;;;5025165;28;20415;-85
2022/10/07 10:18:51;;;;;;;68.07;4.97;;;15.30;96.20;;;;;;5024738;28;20534;-85
2022/10/07 10:21:19;;;;;;;73.87;5.90;;;15.40;91.50;;;;;;5042824;28;20395;-85
2022/10/07 10:23:49;;;;;;;71.03;4.20;;;15.60;89.00;;;;;;5042928;28;20420;-84
2022/10/07 10:26:35;;;;;;;70.50;3.87;;;15.90;85.50;;;;;;5025042;28;20943;-85
2022/10/07 10:29:21;;;;;;;72.63;3.73;;;16.20;81.70;;;;;;5043080;28;20779;-85
2022/10/07 10:32:21;;;;;;;70.30;4.27;;;16.50;57.00;;;;;;5025060;28;20397;-85
2022/10/07 10:35:16;;;;;;;71.57;5.10;;;16.60;51.20;;;;;;5042445;28;20413;-85
2022/10/07 10:38:19;;;;;;;72.40;4.20;;;16.80;49.60;;;;;;5024357;28;20524;-84
2022/10/07 10:40:50;;;;;;;77.83;4.30;;;17.00;25.40;;;;;;5041990;28;20731;-85
2022/10/07 10:43:34;;;;;;;71.23;5.00;;;17.10;22.10;;;;;;5042182;28;20405;-85
2022/10/07 10:46:14;;;;;;;66.57;3.50;;;17.20;15.80;;;;;;5024509;28;20399;-85
2022/10/07 10:49:05;;;;;;;70.27;3.70;;;17.10;18.50;;;;;;5024641;28;20867;-85
2022/10/07 10:51:43;;;;;;;68.50;3.13;;;17.30;7.70;;;;;;5041504;28;20415;-84
2022/10/07 10:54:53;;;;;;;74.43;4.00;;;17.40;9.40;;;;;;5023624;28;21032;-84
2022/10/07 10:57:40;;;;;;;73.93;3.83;;;17.50;2.20;;;;;;5042182;28;20530;-84
2022/10/07 11:00:19;;;;;;;73.63;4.03;;;17.60;4.20;;;;;;5040823;28;20795;-85
2022/10/07 11:02:45;;;;;;;67.00;3.20;;;17.80;1.00;;;;;;5040588;28;20815;-85
2022/10/07 11:05:24;;;;;;;78.23;4.73;;;18.00;1.00;;;;;;5106665;22;20629;-87
2022/10/07 11:07:57;;;;;;;74.07;4.33;;;18.20;1.00;;;;;;5035802;28;20185;-86
2022/10/07 11:10:54;;;;;;;70.60;3.90;;;18.20;1.00;;;;;;5036084;28;20423;-86
2022/10/07 11:13:42;;;;;;;74.00;4.13;;;18.30;1.00;;;;;;5018372;28;20424;-86
2022/10/07 11:16:16;;;;;;;70.93;4.30;;;18.40;1.00;;;;;;5017925;28;20396;-87
2022/10/07 11:18:45;;;;;;;70.30;4.23;;;18.40;1.00;;;;;;5035844;28;20490;-87
2022/10/07 11:21:19;;;;;;;70.10;3.67;;;18.30;1.00;;;;;;5035528;28;20405;-86
2022/10/07 11:24:09;;;;;;;70.60;3.30;;;18.40;1.00;;;;;;5034840;28;20384;-87
2022/10/07 11:26:52;;;;;;;73.10;3.80;;;18.40;1.00;;;;;;5035568;28;20376;-87
2022/10/07 11:29:41;;;;;;;74.43;4.40;;;18.60;1.00;;;;;;5035334;28;20424;-87
2022/10/07 11:32:34;;;;;;;69.80;3.10;;;18.70;1.00;;;;;;5035706;28;20390;-87
2022/10/07 11:35:33;;;;;;;74.03;3.50;;;19.00;1.00;;;;;;5035613;28;20744;-87
2022/10/07 11:38:15;;;;;;;67.30;2.90;;;18.90;1.00;;;;;;5035327;28;20847;-87
2022/10/07 11:40:57;;;;;;;72.87;3.83;;;18.70;1.00;;;;;;5036326;28;20872;-87
2022/10/07 11:43:37;;;;;;;68.50;3.77;;;18.80;1.00;;;;;;5017422;28;20396;-87
2022/10/07 11:46:20;;;;;;;71.40;4.57;;;18.80;1.00;;;;;;5035252;28;20392;-87
2022/10/07 11:48:53;;;;;;;74.30;3.40;;;19.00;1.00;;;;;;5035387;28;20905;-87
2022/10/07 11:51:26;;;;;;;72.77;3.43;;;19.20;1.00;;;;;;5035021;28;20471;-87
2022/10/07 11:53:56;;;;;;;70.57;2.80;;;19.20;1.00;;;;;;5035328;28;20438;-87
2022/10/07 11:56:25;;;;;;;72.90;3.33;;;19.30;1.00;;;;;;5035408;28;20423;-86
2022/10/07 11:59:00;;;;;;;74.73;3.77;;;19.40;1.00;;;;;;5017195;28;20487;-86
2022/10/07 12:01:29;;;;;;;72.67;3.40;;;19.50;1.00;;;;;;5035384;28;20415;-86
2022/10/07 12:04:00;;;;;;;73.97;4.33;;;19.60;1.00;;;;;;5035724;28;20404;-86
2022/10/07 12:06:27;;;;;;;73.03;3.60;;;19.50;1.00;;;;;;5035462;28;20432;-86
2022/10/07 12:08:53;;;;;;;69.60;4.17;;;19.50;1.00;;;;;;5038922;28;20479;-85
2022/10/07 12:11:21;;;;;;;73.60;4.33;;;19.40;1.00;;;;;;5049255;28;20396;-85
2022/10/07 12:13:49;;;;;;;70.30;3.43;;;19.30;1.00;;;;;;5050815;28;20404;-85
2022/10/07 12:16:28;;;;;;;72.60;4.30;;;19.40;1.00;;;;;;5050318;28;20400;-85
2022/10/07 12:19:16;;;;;;;74.97;4.00;;;19.20;1.00;;;;;;5051416;28;20462;-85
2022/10/07 12:22:15;;;;;;;68.77;3.70;;;19.20;1.00;;;;;;5051825;28;20389;-85
2022/10/07 12:24:44;;;;;;;69.70;2.93;;;19.20;1.00;;;;;;5050722;28;20408;-85
2022/10/07 12:27:18;;;;;;;68.60;4.23;;;19.30;1.00;;;;;;5050590;28;20471;-85
2022/10/07 12:29:57;;;;;;;70.00;4.10;;;19.40;1.00;;;;;;5050960;28;20454;-85
2022/10/07 12:32:51;;;;;;;73.07;4.80;;;19.60;1.00;;;;;;5050975;28;20475;-85
2022/10/07 12:35:33;;;;;;;73.00;4.00;;;19.30;1.00;;;;;;5050278;28;20379;-85
2022/10/07 12:38:29;;;;;;;69.80;3.73;;;19.20;1.00;;;;;;5049665;28;20519;-85
2022/10/07 12:41:05;;;;;;;76.37;4.40;;;19.20;1.00;;;;;;5050460;28;20381;-85
2022/10/07 12:43:54;;;;;;;70.60;4.43;;;19.30;1.00;;;;;;5032931;28;20403;-85
2022/10/07 12:46:21;;;;;;;71.20;4.27;;;19.50;1.00;;;;;;5050284;28;20407;-85
2022/10/07 12:48:57;;;;;;;71.83;4.50;;;19.60;1.00;;;;;;5050470;28;20791;-85
2022/10/07 12:51:38;;;;;;;69.80;4.70;;;19.70;1.00;;;;;;5050043;28;20411;-85
2022/10/07 12:54:11;;;;;;;74.73;5.00;;;19.70;1.00;;;;;;5049517;28;20385;-85
2022/10/07 12:56:43;;;;;;;73.10;4.53;;;19.50;1.00;;;;;;5049684;28;20380;-85
2022/10/07 12:59:46;;;;;;;68.60;5.00;;;19.20;1.00;;;;;;5050532;28;20554;-85
2022/10/07 13:02:35;;;;;;;71.57;5.50;;;19.10;1.00;;;;;;5050942;28;20411;-85
2022/10/07 13:05:20;;;;;;;66.17;2.83;;;19.10;1.00;;;;;;5050542;28;20448;-85
2022/10/07 13:08:14;;;;;;;69.83;4.10;;;19.20;1.00;;;;;;5049654;28;20412;-85
2022/10/07 13:11:00;;;;;;;71.73;5.30;;;19.40;1.00;;;;;;5050219;28;20430;-85
2022/10/07 13:13:34;;;;;;;74.57;6.87;;;19.30;1.00;;;;;;5051190;28;20380;-85